Time;durP1;ratioP1;P1;durP2;ratioP2;P2;SDS_P1;SDS_P2;PMS_P1;PMS_P2;Temp;Humidity;BMP_temperature;BMP_pressure;BME280_temperature;BME280_humidity;BME280_pressure;Samples;Min_cycle;Max_cycle;Signal;HPM_P1;HPM_P2
2023/08/31 00:01:06;;;;;;;4.20;2.72;;;;;;;13.70;76.00;100749.47;4984890;28;20112;-63
2023/08/31 00:03:31;;;;;;;3.25;2.70;;;;;;;13.61;75.88;100749.97;4987827;28;20022;-63
2023/08/31 00:05:57;;;;;;;3.45;2.78;;;;;;;13.54;76.10;100748.63;4992256;28;20031;-63
2023/08/31 00:08:22;;;;;;;4.93;3.15;;;;;;;13.40;76.63;100748.50;4984562;28;20093;-63
2023/08/31 00:10:56;;;;;;;3.83;3.20;;;;;;;13.28;77.23;100750.00;4989751;28;20057;-63
2023/08/31 00:13:21;;;;;;;5.28;3.22;;;;;;;13.25;77.33;100751.03;4985157;28;20377;-64
2023/08/31 00:15:46;;;;;;;4.60;3.13;;;;;;;13.24;77.90;100753.75;4985527;28;20157;-63
2023/08/31 00:18:12;;;;;;;4.78;3.50;;;;;;;13.28;77.57;100750.84;4989899;28;20022;-63
2023/08/31 00:20:38;;;;;;;5.35;3.83;;;;;;;13.26;78.21;100747.44;4987864;28;20068;-63
2023/08/31 00:23:03;;;;;;;5.40;3.97;;;;;;;13.25;77.81;100743.06;4987806;28;20065;-63
2023/08/31 00:25:29;;;;;;;7.00;3.85;;;;;;;13.28;77.80;100745.53;4987052;28;20088;-63
2023/08/31 00:27:54;;;;;;;6.25;3.95;;;;;;;13.28;78.01;100748.19;4995855;28;20033;-63
2023/08/31 00:30:20;;;;;;;4.72;3.80;;;;;;;13.27;78.87;100750.94;4994999;28;20072;-63
2023/08/31 00:32:47;;;;;;;6.50;4.20;;;;;;;13.25;78.30;100742.22;4990573;28;20125;-64
2023/08/31 00:35:12;;;;;;;5.15;4.47;;;;;;;13.25;78.11;100735.09;4988752;28;20050;-63
2023/08/31 00:37:38;;;;;;;7.15;4.25;;;;;;;13.19;78.48;100743.34;4989892;28;20018;-63
2023/08/31 00:40:04;;;;;;;5.82;4.47;;;;;;;13.15;78.70;100748.88;4989528;28;20043;-63
2023/08/31 00:42:30;;;;;;;4.93;4.43;;;;;;;13.15;78.20;100741.81;4988054;28;20161;-63
2023/08/31 00:44:55;;;;;;;7.05;4.32;;;;;;;13.17;78.11;100745.22;4990207;28;20106;-63
2023/08/31 00:47:21;;;;;;;6.15;4.20;;;;;;;13.22;77.71;100745.00;4991239;28;20030;-63
2023/08/31 00:49:47;;;;;;;6.03;4.78;;;;;;;13.15;78.29;100738.25;4993968;28;20047;-63
2023/08/31 00:52:13;;;;;;;6.47;4.57;;;;;;;13.08;78.56;100743.06;4985899;28;20026;-63
2023/08/31 00:54:38;;;;;;;6.55;4.93;;;;;;;13.15;78.03;100739.16;4994904;28;20500;-63
2023/08/31 00:57:03;;;;;;;7.63;4.63;;;;;;;13.07;78.57;100735.19;5001235;28;20435;-63
2023/08/31 00:59:29;;;;;;;5.70;4.43;;;;;;;13.08;78.43;100734.22;4977160;28;20019;-62
2023/08/31 01:02:20;;;;;;;8.15;4.97;;;;;;;13.06;78.98;100744.94;4999086;28;20030;-63
2023/08/31 01:05:18;;;;;;;9.02;5.20;;;;;;;13.04;78.50;100746.78;4985106;28;20110;-64
2023/08/31 01:08:12;;;;;;;7.65;5.13;;;;;;;12.97;79.15;100740.97;4989406;28;20080;-63
2023/08/31 01:11:00;;;;;;;5.30;4.80;;;;;;;12.95;78.29;100739.31;4990934;28;20025;-63
2023/08/31 01:13:30;;;;;;;7.55;5.07;;;;;;;12.84;79.42;100731.06;4986760;28;20169;-64
2023/08/31 01:16:00;;;;;;;5.78;4.95;;;;;;;12.82;79.56;100728.47;4985996;28;20034;-63
2023/08/31 01:18:27;;;;;;;7.30;5.25;;;;;;;12.83;79.54;100735.50;4980613;28;20117;-63
2023/08/31 01:21:00;;;;;;;6.57;5.47;;;;;;;12.76;80.04;100734.09;4991550;28;20026;-63
2023/08/31 01:23:35;;;;;;;7.22;4.82;;;;;;;12.71;80.06;100729.03;4988153;28;20026;-63
2023/08/31 01:26:01;;;;;;;7.57;5.60;;;;;;;12.65;80.22;100731.13;4971872;28;20045;-63
2023/08/31 01:28:27;;;;;;;6.45;5.85;;;;;;;12.74;80.17;100735.97;4987367;28;20037;-63
2023/08/31 01:30:52;;;;;;;7.25;5.90;;;;;;;12.60;80.84;100734.03;4986852;28;20033;-63
2023/08/31 01:33:17;;;;;;;7.18;4.70;;;;;;;12.67;80.97;100735.41;4990813;28;20478;-64
2023/08/31 01:35:48;;;;;;;7.72;5.43;;;;;;;12.70;80.06;100743.22;4995669;28;20028;-63
2023/08/31 01:38:19;;;;;;;5.72;4.90;;;;;;;12.69;81.14;100753.91;4993701;28;20751;-63
2023/08/31 01:41:00;;;;;;;6.97;6.07;;;;;;;12.69;80.57;100752.13;4985602;28;20360;-63
2023/08/31 01:43:27;;;;;;;7.00;4.97;;;;;;;12.70;80.62;100753.84;4995276;28;20030;-63
2023/08/31 01:45:53;;;;;;;10.68;5.57;;;;;;;12.63;80.12;100760.38;4995607;28;20041;-63
2023/08/31 01:48:18;;;;;;;8.88;5.15;;;;;;;12.62;80.24;100755.16;4992128;28;20022;-63
2023/08/31 01:50:44;;;;;;;7.80;6.15;;;;;;;12.61;80.96;100756.94;4970420;28;20101;-62
2023/08/31 01:53:09;;;;;;;7.20;5.30;;;;;;;12.68;80.62;100757.47;4987219;28;20125;-63
2023/08/31 01:55:34;;;;;;;9.90;5.75;;;;;;;12.67;80.96;100759.28;4989127;28;20038;-63
2023/08/31 01:58:00;;;;;;;9.50;6.00;;;;;;;12.66;80.99;100754.91;4983150;28;20477;-63
2023/08/31 02:00:25;;;;;;;7.25;5.57;;;;;;;12.60;81.05;100751.72;4988584;28;20026;-63
2023/08/31 02:02:51;;;;;;;6.93;5.80;;;;;;;12.65;81.22;100755.84;4987792;28;21169;-63
2023/08/31 02:05:16;;;;;;;7.10;6.03;;;;;;;12.71;81.04;100750.25;4990050;28;20236;-63
2023/08/31 02:07:41;;;;;;;9.55;6.30;;;;;;;12.80;80.61;100756.88;4989515;28;20030;-63
2023/08/31 02:10:07;;;;;;;8.60;5.82;;;;;;;12.86;80.67;100756.56;4987776;28;20034;-63
2023/08/31 02:12:33;;;;;;;9.18;7.03;;;;;;;12.91;80.90;100756.31;4987724;28;20030;-64
2023/08/31 02:14:59;;;;;;;9.30;6.43;;;;;;;12.95;80.74;100764.06;4986027;28;20117;-64
2023/08/31 02:17:25;;;;;;;8.85;6.10;;;;;;;12.98;80.23;100769.22;4988860;28;20088;-65
2023/08/31 02:19:50;;;;;;;9.60;6.65;;;;;;;12.99;80.63;100762.09;4989365;28;20428;-64
2023/08/31 02:22:16;;;;;;;9.13;6.85;;;;;;;13.04;80.83;100760.06;4993135;28;20034;-64
2023/08/31 02:24:41;;;;;;;9.00;7.18;;;;;;;13.06;80.63;100758.22;4991412;28;20029;-65
2023/08/31 02:27:06;;;;;;;9.23;6.88;;;;;;;13.05;81.12;100753.81;4987031;28;20031;-64
2023/08/31 02:29:31;;;;;;;9.10;7.20;;;;;;;12.98;81.81;100755.09;4990909;28;20393;-65
2023/08/31 02:31:57;;;;;;;9.43;7.10;;;;;;;13.00;81.86;100750.53;4988737;28;20517;-65
2023/08/31 02:34:22;;;;;;;10.02;7.22;;;;;;;12.95;82.08;100755.22;4989546;28;20030;-64
2023/08/31 02:36:47;;;;;;;9.45;6.57;;;;;;;12.93;81.73;100752.66;4988095;28;20034;-64
2023/08/31 02:39:13;;;;;;;11.35;7.72;;;;;;;12.92;81.95;100752.75;4985665;28;20041;-64
2023/08/31 02:41:38;;;;;;;11.50;7.60;;;;;;;12.90;82.90;100763.44;4967776;28;20035;-65
2023/08/31 02:44:04;;;;;;;7.55;6.57;;;;;;;12.97;82.05;100770.16;4987089;28;20034;-65
2023/08/31 02:46:29;;;;;;;9.20;7.22;;;;;;;12.97;82.39;100764.00;4990897;28;20113;-65
2023/08/31 02:48:55;;;;;;;11.95;8.00;;;;;;;12.94;81.74;100767.66;4987982;28;20041;-64
2023/08/31 02:51:20;;;;;;;11.10;7.60;;;;;;;12.93;82.02;100765.09;4993407;28;20054;-64
2023/08/31 02:53:45;;;;;;;10.27;7.10;;;;;;;12.89;81.90;100766.16;4988971;28;20026;-65
2023/08/31 02:56:10;;;;;;;12.27;7.68;;;;;;;12.88;82.16;100769.75;4990638;28;20027;-64
2023/08/31 02:58:36;;;;;;;11.75;7.90;;;;;;;12.81;82.28;100768.34;4987492;28;20188;-65
2023/08/31 03:01:11;;;;;;;10.25;7.60;;;;;;;12.76;82.17;100771.22;4997361;28;20025;-64
2023/08/31 03:03:41;;;;;;;10.25;7.40;;;;;;;12.68;82.32;100766.34;4993315;28;20050;-64
2023/08/31 03:06:08;;;;;;;10.82;7.25;;;;;;;12.65;82.89;100758.50;4994453;28;20025;-64
2023/08/31 03:08:35;;;;;;;10.02;8.23;;;;;;;12.63;82.44;100764.81;4994774;28;20362;-64
2023/08/31 03:11:01;;;;;;;14.23;9.85;;;;;;;12.61;82.84;100767.56;4991224;28;20322;-65
2023/08/31 03:13:26;;;;;;;14.75;11.23;;;;;;;12.58;82.64;100762.38;4988845;28;20169;-64
2023/08/31 03:15:52;;;;;;;15.45;11.55;;;;;;;12.56;83.28;100766.06;4996293;28;20156;-64
2023/08/31 03:18:17;;;;;;;15.40;10.95;;;;;;;12.56;83.35;100761.63;4991734;28;20026;-64
2023/08/31 03:20:42;;;;;;;20.45;12.25;;;;;;;12.49;83.54;100763.69;4987567;28;20030;-65
2023/08/31 03:23:09;;;;;;;20.13;13.60;;;;;;;12.45;83.20;100766.59;4988719;28;20026;-64
2023/08/31 03:25:34;;;;;;;18.40;13.45;;;;;;;12.42;83.15;100764.97;4987234;28;20030;-65
2023/08/31 03:27:59;;;;;;;20.60;14.23;;;;;;;12.39;82.91;100775.69;4992035;28;20035;-64
2023/08/31 03:30:25;;;;;;;20.73;14.48;;;;;;;12.33;83.23;100769.84;4990732;28;20030;-64
2023/08/31 03:32:50;;;;;;;19.58;13.82;;;;;;;12.51;82.74;100772.47;4991829;28;20080;-63
2023/08/31 03:35:15;;;;;;;20.80;14.48;;;;;;;12.51;82.69;100763.66;4985285;28;20405;-63
2023/08/31 03:37:41;;;;;;;21.38;14.23;;;;;;;12.42;82.65;100770.25;4987383;28;20030;-64
2023/08/31 03:40:07;;;;;;;20.08;13.90;;;;;;;12.46;82.43;100763.88;4988239;28;20113;-63
2023/08/31 03:42:34;;;;;;;19.83;14.10;;;;;;;12.48;82.23;100759.34;4990563;28;20439;-65
2023/08/31 03:44:59;;;;;;;21.02;14.98;;;;;;;12.24;83.66;100765.84;4984520;28;20030;-65
2023/08/31 03:47:24;;;;;;;18.30;13.38;;;;;;;12.51;82.19;100759.19;4987703;28;20516;-65
2023/08/31 03:49:50;;;;;;;15.95;11.95;;;;;;;12.54;81.65;100763.47;4992425;28;20073;-64
2023/08/31 03:52:15;;;;;;;17.35;12.13;;;;;;;12.49;81.75;100753.09;4987796;28;20034;-64
2023/08/31 03:54:40;;;;;;;20.67;12.85;;;;;;;12.19;83.38;100755.47;4991601;28;20022;-64
2023/08/31 03:57:06;;;;;;;17.75;14.18;;;;;;;12.11;83.98;100765.56;4993435;28;20060;-64
2023/08/31 03:59:31;;;;;;;18.42;13.90;;;;;;;12.04;84.34;100761.50;4991553;28;20029;-64
2023/08/31 04:01:56;;;;;;;18.45;13.88;;;;;;;12.03;84.17;100764.22;5002960;28;20034;-65
2023/08/31 04:04:21;;;;;;;19.08;14.27;;;;;;;12.02;84.70;100768.66;4995077;28;20041;-64
2023/08/31 04:06:47;;;;;;;19.98;13.63;;;;;;;12.02;84.59;100773.09;4988880;28;20018;-64
2023/08/31 04:09:12;;;;;;;20.05;14.32;;;;;;;12.03;85.13;100766.84;4987411;28;20030;-64
2023/08/31 04:11:37;;;;;;;22.85;15.18;;;;;;;12.03;84.40;100773.03;4991142;28;20065;-64
2023/08/31 04:14:02;;;;;;;22.45;14.63;;;;;;;11.99;85.16;100782.06;4992237;28;20061;-64
2023/08/31 04:16:28;;;;;;;22.45;15.13;;;;;;;11.96;84.92;100780.41;4992992;28;20121;-64
2023/08/31 04:18:54;;;;;;;22.90;15.88;;;;;;;11.90;85.08;100785.16;4990218;28;20034;-64
2023/08/31 04:21:20;;;;;;;23.17;16.00;;;;;;;11.91;85.79;100795.66;4992924;28;20109;-64
2023/08/31 04:23:45;;;;;;;22.20;15.85;;;;;;;11.89;85.34;100794.88;4987699;28;20314;-64
2023/08/31 04:26:14;;;;;;;21.58;14.73;;;;;;;11.91;85.55;100786.84;4998275;28;20061;-65
2023/08/31 04:28:43;;;;;;;22.30;14.70;;;;;;;11.88;85.66;100787.84;4991631;28;20022;-64
2023/08/31 04:31:09;;;;;;;22.17;14.88;;;;;;;11.92;85.20;100788.56;4989255;28;20030;-65
2023/08/31 04:33:35;;;;;;;23.58;15.00;;;;;;;11.93;84.85;100791.13;4986242;28;20028;-64
2023/08/31 04:36:01;;;;;;;20.42;14.60;;;;;;;11.89;85.94;100797.53;4988926;28;20038;-64
2023/08/31 04:38:26;;;;;;;20.08;14.82;;;;;;;11.88;85.71;100800.22;4996096;28;20556;-64
2023/08/31 04:40:51;;;;;;;19.23;13.70;;;;;;;11.89;85.05;100801.94;4989070;28;20049;-64
2023/08/31 04:43:17;;;;;;;20.88;14.98;;;;;;;11.89;85.46;100800.19;4979731;28;20041;-64
2023/08/31 04:45:42;;;;;;;19.60;15.68;;;;;;;11.86;85.38;100805.63;4999639;28;20049;-64
2023/08/31 04:48:07;;;;;;;23.65;13.18;;;;;;;11.88;85.61;100803.75;4991418;28;20392;-64
2023/08/31 04:50:33;;;;;;;19.70;13.65;;;;;;;11.85;85.72;100803.03;4988280;28;20548;-65
2023/08/31 04:52:58;;;;;;;17.85;13.23;;;;;;;11.89;85.39;100802.84;4994967;28;20469;-63
2023/08/31 04:55:25;;;;;;;19.33;13.32;;;;;;;11.92;85.92;100804.47;4998638;28;20049;-63
2023/08/31 04:57:50;;;;;;;15.73;11.85;;;;;;;11.92;85.66;100810.63;4994914;28;20516;-63
2023/08/31 05:00:16;;;;;;;16.20;12.68;;;;;;;11.97;85.60;100807.75;4990256;28;21418;-63
2023/08/31 05:02:41;;;;;;;17.35;12.32;;;;;;;11.99;85.33;100809.41;4996203;28;20433;-64
2023/08/31 05:05:07;;;;;;;16.38;11.48;;;;;;;11.98;85.12;100815.66;5002314;28;20251;-64
2023/08/31 05:07:32;;;;;;;18.38;11.20;;;;;;;11.96;85.21;100825.44;4994032;28;20026;-64
2023/08/31 05:09:57;;;;;;;15.02;10.98;;;;;;;11.93;85.48;100820.28;4987282;28;20038;-64
2023/08/31 05:12:23;;;;;;;14.18;10.55;;;;;;;11.96;85.75;100820.16;4996323;28;20036;-63
2023/08/31 05:14:48;;;;;;;14.02;11.00;;;;;;;11.95;85.82;100821.09;4997225;28;20366;-62
2023/08/31 05:17:13;;;;;;;13.07;9.35;;;;;;;12.03;85.68;100828.69;4984576;28;20788;-63
2023/08/31 05:19:38;;;;;;;13.68;10.23;;;;;;;12.06;85.87;100828.53;4990591;28;20020;-63
2023/08/31 05:22:05;;;;;;;14.27;10.10;;;;;;;12.14;85.63;100836.13;4993842;28;20437;-64
2023/08/31 05:24:30;;;;;;;11.77;9.55;;;;;;;12.19;85.73;100834.13;4985066;28;20088;-64
2023/08/31 05:26:56;;;;;;;13.00;9.30;;;;;;;12.17;85.45;100842.16;4986387;28;20038;-64
2023/08/31 05:29:21;;;;;;;13.80;9.30;;;;;;;12.16;85.46;100845.72;4990254;28;20098;-64
2023/08/31 05:31:46;;;;;;;10.50;8.60;;;;;;;12.18;85.19;100845.66;4991183;28;20525;-64
2023/08/31 05:34:16;;;;;;;13.32;8.95;;;;;;;12.17;85.22;100857.16;4994061;28;20033;-65
2023/08/31 05:36:41;;;;;;;15.18;9.43;;;;;;;12.13;85.47;100861.78;4988863;28;20545;-64
2023/08/31 05:39:07;;;;;;;10.70;7.80;;;;;;;12.17;85.07;100857.16;4988046;28;20106;-65
2023/08/31 05:41:33;;;;;;;11.68;8.65;;;;;;;12.18;85.06;100869.53;4993429;28;20113;-64
2023/08/31 05:43:59;;;;;;;10.68;7.32;;;;;;;12.22;85.19;100866.66;4989653;28;20030;-64
2023/08/31 05:46:25;;;;;;;11.30;7.70;;;;;;;12.26;85.08;100864.69;4993342;28;20501;-64
2023/08/31 05:48:50;;;;;;;9.40;7.13;;;;;;;12.30;85.01;100868.94;4989576;28;20096;-65
2023/08/31 05:51:15;;;;;;;9.75;6.97;;;;;;;12.32;84.71;100867.09;4994333;28;20057;-64
2023/08/31 05:53:40;;;;;;;9.63;6.93;;;;;;;12.33;84.61;100865.28;4994648;28;20038;-64
2023/08/31 05:56:07;;;;;;;9.85;7.15;;;;;;;12.30;84.98;100873.38;4987339;28;20037;-64
2023/08/31 05:58:33;;;;;;;9.57;7.22;;;;;;;12.32;84.47;100868.88;4987134;28;20069;-65
2023/08/31 06:00:59;;;;;;;9.63;7.43;;;;;;;12.33;84.90;100870.59;4989651;28;20032;-65
2023/08/31 06:03:25;;;;;;;8.18;6.88;;;;;;;12.35;85.01;100874.00;4991125;28;20022;-63
2023/08/31 06:05:50;;;;;;;10.00;7.95;;;;;;;12.37;85.31;100867.72;4988334;28;20117;-63
2023/08/31 06:08:15;;;;;;;9.85;7.57;;;;;;;12.44;85.40;100877.09;4986818;28;20034;-63
2023/08/31 06:10:41;;;;;;;9.05;7.07;;;;;;;12.49;85.24;100868.91;4988902;28;20032;-64
2023/08/31 06:13:06;;;;;;;8.68;6.78;;;;;;;12.57;85.63;100873.88;4995865;28;20033;-63
2023/08/31 06:15:31;;;;;;;10.80;7.57;;;;;;;12.57;85.42;100887.97;4998223;28;20116;-63
2023/08/31 06:17:57;;;;;;;8.80;6.38;;;;;;;12.59;85.83;100870.22;4988130;28;20093;-63
2023/08/31 06:20:23;;;;;;;8.90;6.70;;;;;;;12.69;86.24;100878.59;4990669;28;20578;-63
2023/08/31 06:22:48;;;;;;;10.32;7.20;;;;;;;12.78;85.94;100880.81;4986947;28;20022;-63
2023/08/31 06:25:16;;;;;;;8.98;6.95;;;;;;;12.86;85.92;100883.06;4987043;28;20124;-62
2023/08/31 06:27:42;;;;;;;12.43;6.80;;;;;;;12.93;86.25;100885.34;4986869;28;20328;-62
2023/08/31 06:30:08;;;;;;;9.75;7.32;;;;;;;12.99;85.78;100887.69;4984281;28;20086;-63
2023/08/31 06:32:33;;;;;;;10.63;6.43;;;;;;;13.10;85.85;100886.28;4984118;28;20112;-63
2023/08/31 06:34:59;;;;;;;8.20;7.30;;;;;;;13.15;85.44;100894.88;4989772;28;20038;-63
2023/08/31 06:37:24;;;;;;;10.63;6.82;;;;;;;13.21;85.51;100894.59;4990518;28;20626;-63
2023/08/31 06:39:49;;;;;;;8.50;6.65;;;;;;;13.25;86.13;100897.06;4987901;28;21200;-63
2023/08/31 06:42:15;;;;;;;11.77;7.22;;;;;;;13.33;85.92;100898.44;4990813;28;20053;-63
2023/08/31 06:44:40;;;;;;;9.00;6.32;;;;;;;13.38;85.80;100889.34;4992548;28;20031;-63
2023/08/31 06:47:05;;;;;;;7.93;6.38;;;;;;;13.49;85.44;100896.75;4987230;28;20767;-63
2023/08/31 06:49:32;;;;;;;9.07;6.50;;;;;;;13.58;85.30;100904.25;4988683;28;20038;-63
2023/08/31 06:51:59;;;;;;;13.82;7.22;;;;;;;13.61;85.67;100904.06;4990025;28;20031;-63
2023/08/31 06:54:24;;;;;;;7.07;6.30;;;;;;;13.69;85.72;100907.19;4985961;28;20481;-64
2023/08/31 06:56:49;;;;;;;7.70;6.32;;;;;;;13.79;85.06;100902.25;4990847;28;20033;-63
2023/08/31 06:59:14;;;;;;;11.18;6.20;;;;;;;13.91;84.88;100908.72;4992127;28;20646;-63
2023/08/31 07:01:40;;;;;;;10.77;6.38;;;;;;;13.97;84.89;100909.25;4987557;28;20034;-64
2023/08/31 07:04:05;;;;;;;7.93;6.28;;;;;;;14.04;84.98;100908.00;4992688;28;20045;-63
2023/08/31 07:06:33;;;;;;;9.40;6.70;;;;;;;14.17;84.60;100918.81;4988255;28;20033;-64
2023/08/31 07:08:58;;;;;;;8.20;6.57;;;;;;;14.26;84.65;100918.31;4986725;28;20220;-63
2023/08/31 07:11:24;;;;;;;12.68;7.38;;;;;;;14.36;84.36;100918.69;4984673;28;20121;-63
2023/08/31 07:13:49;;;;;;;9.20;6.20;;;;;;;14.47;83.44;100926.09;4989249;28;20030;-63
2023/08/31 07:16:15;;;;;;;8.65;6.57;;;;;;;14.54;83.51;100930.13;4985979;28;20037;-63
2023/08/31 07:18:40;;;;;;;10.85;6.38;;;;;;;14.58;83.69;100923.72;4987639;28;20109;-63
2023/08/31 07:21:05;;;;;;;11.57;6.45;;;;;;;14.68;82.91;100932.88;4992525;28;20026;-63
2023/08/31 07:23:30;;;;;;;7.70;6.35;;;;;;;14.79;83.12;100924.31;4967288;28;20473;-63
2023/08/31 07:26:00;;;;;;;9.27;6.60;;;;;;;14.88;82.43;100925.63;4991390;28;20108;-63
2023/08/31 07:28:25;;;;;;;7.63;5.38;;;;;;;15.00;82.57;100925.75;4990964;28;20018;-62
2023/08/31 07:31:04;;;;;;;11.00;7.00;;;;;;;15.13;82.28;100933.91;4987350;28;20384;-64
2023/08/31 07:33:31;;;;;;;10.93;6.25;;;;;;;15.27;81.40;100928.63;4991621;28;20088;-62
2023/08/31 07:35:57;;;;;;;9.48;6.45;;;;;;;15.41;81.47;100924.31;4989638;28;20088;-63
2023/08/31 07:38:22;;;;;;;9.38;5.45;;;;;;;15.56;80.79;100928.72;4990656;28;20038;-63
2023/08/31 07:40:47;;;;;;;7.45;6.22;;;;;;;15.72;80.43;100939.38;4991518;28;20022;-64
2023/08/31 07:43:13;;;;;;;11.00;6.13;;;;;;;15.81;79.85;100933.50;4989486;28;20395;-64
2023/08/31 07:45:38;;;;;;;8.93;6.68;;;;;;;15.92;79.43;100932.81;4985838;28;20031;-63
2023/08/31 07:48:05;;;;;;;15.07;6.30;;;;;;;16.13;77.84;100939.50;4995780;28;20025;-63
2023/08/31 07:50:31;;;;;;;8.98;5.15;;;;;;;16.43;77.47;100931.41;4987642;28;20054;-63
2023/08/31 07:52:56;;;;;;;7.43;5.97;;;;;;;16.79;77.01;100928.22;4988274;28;20493;-65
2023/08/31 07:55:21;;;;;;;8.75;5.75;;;;;;;17.06;74.68;100938.06;4989870;28;20536;-64
2023/08/31 07:57:46;;;;;;;8.98;6.03;;;;;;;17.25;73.84;100935.91;4986142;28;20153;-63
2023/08/31 08:00:14;;;;;;;7.50;5.85;;;;;;;17.54;73.00;100927.75;4984878;28;20038;-64
2023/08/31 08:02:40;;;;;;;8.05;5.88;;;;;;;17.73;71.94;100941.59;4987037;28;20183;-63
2023/08/31 08:05:05;;;;;;;10.18;5.80;;;;;;;17.90;70.82;100943.09;4996025;28;20030;-63
2023/08/31 08:07:31;;;;;;;8.02;5.20;;;;;;;18.13;69.29;100938.81;4981730;28;20068;-63
2023/08/31 08:09:56;;;;;;;7.88;5.15;;;;;;;18.39;69.28;100946.84;4987901;28;20556;-63
2023/08/31 08:12:22;;;;;;;9.25;5.65;;;;;;;18.61;67.41;100942.50;4993083;28;20485;-64
2023/08/31 08:14:47;;;;;;;6.97;5.07;;;;;;;18.75;67.47;100943.38;4985528;28;20038;-63
2023/08/31 08:17:12;;;;;;;11.75;5.18;;;;;;;19.03;66.93;100944.88;4987101;28;20683;-63
2023/08/31 08:19:37;;;;;;;6.93;5.00;;;;;;;19.47;66.04;100944.22;4989511;28;20026;-63
2023/08/31 08:22:06;;;;;;;12.15;5.70;;;;;;;19.55;64.91;100947.19;4988520;28;20544;-64
2023/08/31 08:24:31;;;;;;;8.98;4.68;;;;;;;19.84;64.35;100952.16;4986530;28;20023;-64
2023/08/31 08:26:56;;;;;;;9.25;5.43;;;;;;;20.01;64.12;100948.19;4989936;28;20026;-65
2023/08/31 08:29:22;;;;;;;10.65;5.63;;;;;;;20.23;63.38;100958.06;4983098;28;20072;-65
2023/08/31 08:31:47;;;;;;;8.30;5.07;;;;;;;20.31;62.06;100952.97;4979175;28;20038;-65
2023/08/31 08:34:12;;;;;;;7.28;4.93;;;;;;;20.62;61.16;100954.09;4986694;28;20034;-65
2023/08/31 08:36:37;;;;;;;7.57;5.20;;;;;;;20.66;62.60;100962.75;4985124;28;20132;-65
2023/08/31 08:39:03;;;;;;;8.57;5.30;;;;;;;20.94;62.26;100958.66;4985601;28;20409;-65
2023/08/31 08:41:29;;;;;;;7.05;4.97;;;;;;;21.19;60.06;100955.69;4989501;28;20068;-65
2023/08/31 08:44:01;;;;;;;9.18;4.30;;;;;;;21.54;57.80;100963.53;4990368;28;20029;-64
2023/08/31 08:46:27;;;;;;;8.90;5.15;;;;;;;21.88;57.69;100961.50;4992149;28;20038;-65
2023/08/31 08:48:54;;;;;;;7.55;4.28;;;;;;;22.23;56.61;100964.84;4992266;28;20478;-65
2023/08/31 08:51:20;;;;;;;5.93;5.15;;;;;;;22.54;55.85;100968.41;4991468;28;20065;-65
2023/08/31 08:53:46;;;;;;;5.45;4.28;;;;;;;22.69;54.03;100969.72;4989813;28;20030;-65
2023/08/31 08:56:11;;;;;;;7.93;4.53;;;;;;;22.48;54.75;100968.97;4985666;28;20600;-65
2023/08/31 08:58:37;;;;;;;5.68;4.32;;;;;;;22.81;55.42;100974.03;4990545;28;21510;-65
2023/08/31 09:01:06;;;;;;;7.45;4.75;;;;;;;23.31;52.18;100967.75;4986799;28;20041;-67
2023/08/31 09:03:31;;;;;;;5.65;4.40;;;;;;;23.60;51.65;100967.78;4985149;28;20414;-68
2023/08/31 09:06:01;;;;;;;5.78;4.80;;;;;;;23.59;51.09;100960.66;4988108;28;20038;-67
2023/08/31 09:08:27;;;;;;;5.18;3.90;;;;;;;23.74;52.06;100961.97;4989869;28;20029;-68
2023/08/31 09:10:57;;;;;;;4.43;3.75;;;;;;;23.88;48.42;100956.13;4983824;28;20038;-66
2023/08/31 09:13:26;;;;;;;4.55;3.97;;;;;;;24.19;49.15;100966.69;4995142;28;20045;-66
2023/08/31 09:15:52;;;;;;;8.57;4.18;;;;;;;24.58;47.07;100963.91;4987427;28;20026;-66
2023/08/31 09:18:28;;;;;;;7.38;3.95;;;;;;;25.26;47.63;100958.94;4974816;28;20101;-66
2023/08/31 09:20:56;;;;;;;8.68;4.22;;;;;;;25.61;44.94;100963.50;4985109;28;20529;-66
2023/08/31 09:23:21;;;;;;;7.53;3.97;;;;;;;25.93;44.30;100970.22;4991748;28;20420;-66
2023/08/31 09:25:53;;;;;;;7.68;3.67;;;;;;;26.03;44.40;100975.56;4989454;28;20026;-66
2023/08/31 09:28:21;;;;;;;5.32;4.20;;;;;;;26.14;41.07;100970.69;4986357;28;20041;-66
2023/08/31 09:30:50;;;;;;;7.95;3.88;;;;;;;26.14;43.01;100967.16;4985942;28;20034;-66
2023/08/31 09:33:17;;;;;;;5.93;3.75;;;;;;;26.09;41.97;100980.31;4969043;28;20030;-66
2023/08/31 09:35:53;;;;;;;7.47;4.20;;;;;;;26.07;44.37;100975.06;4987488;28;20053;-66
2023/08/31 09:38:19;;;;;;;7.00;3.67;;;;;;;26.33;44.48;100975.03;4988764;28;20088;-66
2023/08/31 09:40:45;;;;;;;7.78;4.18;;;;;;;26.49;41.14;100984.31;4988677;28;20030;-66
2023/08/31 09:43:11;;;;;;;6.13;3.58;;;;;;;26.82;42.85;100979.91;4991515;28;20033;-66
2023/08/31 09:45:37;;;;;;;6.43;3.80;;;;;;;27.00;41.66;100987.91;4989190;28;20082;-66
2023/08/31 09:48:04;;;;;;;6.57;3.72;;;;;;;26.56;41.69;100990.78;4989200;28;20077;-66
2023/08/31 09:50:33;;;;;;;7.72;4.10;;;;;;;26.69;42.12;100989.34;4987329;28;20038;-66
2023/08/31 09:53:03;;;;;;;5.72;4.53;;;;;;;26.80;41.01;100980.03;4991976;28;20545;-65
2023/08/31 09:55:30;;;;;;;7.28;4.00;;;;;;;27.48;40.45;100992.66;4991367;28;20117;-66
2023/08/31 09:58:00;;;;;;;7.85;4.45;;;;;;;27.32;39.18;100985.31;4986750;28;20023;-66
2023/08/31 10:00:27;;;;;;;7.00;4.10;;;;;;;26.50;43.02;100984.16;4983395;28;20030;-65
2023/08/31 10:02:55;;;;;;;6.82;3.42;;;;;;;26.25;41.00;100988.53;4988380;28;20038;-67
2023/08/31 10:05:21;;;;;;;4.82;4.05;;;;;;;25.45;41.99;100999.38;4987041;28;20122;-65
2023/08/31 10:07:48;;;;;;;6.63;4.00;;;;;;;25.88;43.13;100986.97;4984445;28;20548;-66
2023/08/31 10:10:14;;;;;;;7.57;3.58;;;;;;;26.15;43.21;100977.81;4987776;28;20535;-66
2023/08/31 10:12:40;;;;;;;5.53;3.97;;;;;;;25.94;43.93;100991.75;4986429;28;20520;-65
2023/08/31 10:15:06;;;;;;;5.32;3.53;;;;;;;26.64;39.65;100988.13;4999388;28;20030;-66
2023/08/31 10:17:32;;;;;;;4.68;3.35;;;;;;;25.97;40.72;100993.25;4987632;28;20037;-66
2023/08/31 10:19:58;;;;;;;5.80;3.13;;;;;;;25.78;40.14;100988.88;4984635;28;20035;-66
2023/08/31 10:22:23;;;;;;;5.25;2.78;;;;;;;25.90;39.96;100981.38;4986416;28;20093;-65
2023/08/31 10:25:06;;;;;;;4.57;2.90;;;;;;;25.41;41.51;100981.78;4986644;28;20058;-66
2023/08/31 10:27:47;;;;;;;7.00;3.20;;;;;;;25.69;42.91;100987.09;4989570;28;20173;-66
2023/08/31 10:30:14;;;;;;;6.65;3.42;;;;;;;25.88;40.62;100978.84;4985089;28;20453;-66
2023/08/31 10:32:39;;;;;;;6.53;2.85;;;;;;;25.84;40.62;100973.88;4986077;28;20053;-66
2023/08/31 10:35:07;;;;;;;6.30;2.90;;;;;;;25.23;42.66;100972.81;4990502;28;20061;-66
2023/08/31 10:37:33;;;;;;;5.03;3.15;;;;;;;25.01;43.91;100982.16;4989192;28;20084;-66
2023/08/31 10:40:11;;;;;;;6.55;3.22;;;;;;;25.59;41.63;100976.34;4983804;28;20033;-65
2023/08/31 10:43:07;;;;;;;3.15;2.70;;;;;;;25.95;42.12;100979.03;4993745;28;20112;-66
2023/08/31 10:45:43;;;;;;;8.63;3.40;;;;;;;25.98;42.47;100970.59;4986733;28;20465;-65
2023/08/31 10:48:08;;;;;;;3.83;2.95;;;;;;;26.24;40.00;100965.16;4992031;28;20109;-64
2023/08/31 10:50:41;;;;;;;3.83;2.77;;;;;;;26.49;40.54;100966.19;4990722;28;20136;-64
2023/08/31 10:53:11;;;;;;;6.65;3.08;;;;;;;26.60;39.04;100948.78;4988057;28;20292;-64
2023/08/31 10:55:55;;;;;;;4.43;2.50;;;;;;;26.75;40.09;100955.28;4983247;28;20089;-65
2023/08/31 10:58:21;;;;;;;4.60;2.80;;;;;;;26.50;37.99;100953.50;4985782;28;21043;-65
2023/08/31 11:00:50;;;;;;;3.38;2.35;;;;;;;26.23;37.10;100966.19;4991921;28;20026;-65
2023/08/31 11:03:15;;;;;;;3.38;2.38;;;;;;;26.04;37.78;100947.44;4994621;28;20034;-65
2023/08/31 11:05:51;;;;;;;3.58;2.30;;;;;;;26.22;39.26;100953.66;4983950;28;20137;-65
2023/08/31 11:08:16;;;;;;;3.13;2.28;;;;;;;26.46;37.58;100947.53;4996049;28;20480;-65
2023/08/31 11:10:45;;;;;;;5.05;2.58;;;;;;;26.39;38.73;100950.03;4984835;28;20068;-65
2023/08/31 11:13:16;;;;;;;3.60;2.20;;;;;;;26.11;39.72;100953.91;4991380;28;20481;-65
2023/08/31 11:15:46;;;;;;;6.57;2.70;;;;;;;25.62;38.50;100943.53;4988626;28;20054;-65
2023/08/31 11:18:11;;;;;;;5.72;2.67;;;;;;;25.31;38.69;100956.63;4988079;28;20022;-65
2023/08/31 11:20:37;;;;;;;7.18;2.72;;;;;;;25.11;39.93;100966.75;4986619;28;20101;-65